Time;durP1;ratioP1;P1;durP2;ratioP2;P2;SDS_P1;SDS_P2;PMS_P1;PMS_P2;Temp;Humidity;BMP_temperature;BMP_pressure;BME280_temperature;BME280_humidity;BME280_pressure;Samples;Min_cycle;Max_cycle;Signal;HPM_P1;HPM_P2
2021/11/27 00:01:41;;;;;;;37.88;19.02;;;3.40;99.90;;;;;;5054087;28;20476;-68
2021/11/27 00:04:08;;;;;;;27.02;16.35;;;3.40;99.90;;;;;;5054427;28;20040;-68
2021/11/27 00:06:34;;;;;;;29.75;17.75;;;3.40;99.90;;;;;;5054062;28;20123;-68
2021/11/27 00:08:59;;;;;;;32.05;19.05;;;3.40;99.90;;;;;;5054205;28;20531;-68
2021/11/27 00:11:26;;;;;;;28.25;17.42;;;3.40;99.90;;;;;;5053372;28;20083;-68
2021/11/27 00:13:53;;;;;;;32.33;17.52;;;3.40;99.90;;;;;;5052655;28;20029;-68
2021/11/27 00:16:19;;;;;;;32.20;17.50;;;3.40;99.90;;;;;;5052962;28;20394;-68
2021/11/27 00:18:45;;;;;;;26.85;17.73;;;3.40;99.90;;;;;;5054492;28;20017;-68
2021/11/27 00:21:13;;;;;;;31.23;18.13;;;3.40;99.90;;;;;;5054012;28;20031;-68
2021/11/27 00:23:40;;;;;;;27.42;17.90;;;3.40;99.90;;;;;;5052581;28;20078;-68
2021/11/27 00:26:10;;;;;;;31.02;18.20;;;3.40;99.90;;;;;;5053290;28;20029;-68
2021/11/27 00:28:36;;;;;;;34.05;18.77;;;3.40;99.90;;;;;;5054219;28;20025;-68
2021/11/27 00:31:06;;;;;;;29.13;18.88;;;3.40;99.90;;;;;;5053898;28;20499;-68
2021/11/27 00:33:32;;;;;;;31.60;17.63;;;3.40;99.90;;;;;;5053594;28;20179;-68
2021/11/27 00:35:58;;;;;;;30.33;18.58;;;3.40;99.90;;;;;;5053336;28;20405;-68
2021/11/27 00:38:24;;;;;;;29.50;17.63;;;3.40;99.90;;;;;;5053857;28;20024;-68
2021/11/27 00:40:50;;;;;;;27.25;16.25;;;3.40;99.90;;;;;;5053447;28;20497;-68
2021/11/27 00:43:16;;;;;;;26.35;17.60;;;3.40;99.90;;;;;;5053548;28;20104;-68
2021/11/27 00:45:44;;;;;;;29.98;17.88;;;3.40;99.90;;;;;;5053499;28;20484;-68
2021/11/27 00:48:12;;;;;;;26.83;16.75;;;3.40;99.90;;;;;;5053428;28;20036;-68
2021/11/27 00:50:54;;;;;;;22.88;15.95;;;3.40;99.90;;;;;;5052841;28;20092;-68
2021/11/27 00:53:21;;;;;;;24.65;15.68;;;3.40;99.90;;;;;;5053884;28;20071;-68
2021/11/27 00:55:47;;;;;;;26.35;16.90;;;3.40;99.90;;;;;;5053327;28;20025;-68
2021/11/27 00:58:14;;;;;;;25.73;16.42;;;3.40;99.90;;;;;;5053369;28;20033;-68
2021/11/27 01:00:47;;;;;;;27.85;16.52;;;3.40;99.90;;;;;;5053192;28;20027;-68
2021/11/27 01:03:13;;;;;;;;;;;3.40;99.90;;;;;;5053722;28;20075;-68
2021/11/27 01:05:39;;;;;;;27.25;16.85;;;3.40;99.90;;;;;;5051873;28;19905;-68
2021/11/27 01:08:05;;;;;;;24.77;15.35;;;3.40;99.90;;;;;;5053154;28;20035;-68
2021/11/27 01:10:34;;;;;;;24.40;15.80;;;3.30;99.90;;;;;;5052246;28;20021;-68
2021/11/27 01:13:00;;;;;;;25.58;15.23;;;3.30;99.90;;;;;;5053303;28;20032;-68
2021/11/27 01:15:30;;;;;;;22.75;15.20;;;3.30;99.90;;;;;;5053057;28;20036;-68
2021/11/27 01:17:55;;;;;;;30.90;16.40;;;3.30;99.90;;;;;;5053153;28;20480;-68
2021/11/27 01:20:26;;;;;;;23.50;14.73;;;3.30;99.90;;;;;;5052914;28;20035;-67
2021/11/27 01:22:52;;;;;;;25.50;15.27;;;3.30;99.90;;;;;;5053015;28;20102;-68
2021/11/27 01:25:19;;;;;;;24.55;14.50;;;3.30;99.90;;;;;;5053049;28;20021;-68
2021/11/27 01:27:45;;;;;;;23.00;15.18;;;3.30;99.90;;;;;;5052967;28;20029;-68
2021/11/27 01:30:12;;;;;;;27.95;13.68;;;3.30;99.90;;;;;;5053234;28;20491;-68
2021/11/27 01:32:38;;;;;;;24.95;14.18;;;3.30;99.90;;;;;;5052364;28;20400;-68
2021/11/27 01:35:05;;;;;;;24.15;14.80;;;3.30;99.90;;;;;;5053140;28;20021;-68
2021/11/27 01:37:31;;;;;;;23.00;14.00;;;3.30;99.90;;;;;;5053201;28;20107;-68
2021/11/27 01:39:57;;;;;;;24.55;14.70;;;3.30;99.90;;;;;;5052363;28;20196;-68
2021/11/27 01:42:23;;;;;;;23.42;14.85;;;3.30;99.90;;;;;;5053342;28;20029;-68
2021/11/27 01:44:49;;;;;;;25.65;14.75;;;3.30;99.90;;;;;;5052822;28;20028;-68
2021/11/27 01:47:15;;;;;;;21.10;13.55;;;3.30;99.90;;;;;;5052776;28;20035;-68
2021/11/27 01:49:41;;;;;;;18.67;12.75;;;3.30;99.90;;;;;;5052282;28;20059;-68
2021/11/27 01:52:07;;;;;;;25.35;13.13;;;3.30;99.90;;;;;;5052845;28;20090;-68
2021/11/27 01:54:33;;;;;;;25.52;14.98;;;3.30;99.90;;;;;;5053208;28;20036;-68
2021/11/27 01:57:03;;;;;;;28.33;14.23;;;3.30;99.90;;;;;;5052645;28;20022;-68
2021/11/27 01:59:31;;;;;;;21.55;14.73;;;3.30;99.90;;;;;;5052715;28;20021;-68
2021/11/27 02:01:58;;;;;;;26.50;14.48;;;3.30;99.90;;;;;;5051357;28;20479;-68
2021/11/27 02:04:26;;;;;;;27.90;14.32;;;3.30;99.90;;;;;;5052646;28;20040;-68
2021/11/27 02:06:52;;;;;;;25.65;14.27;;;3.30;99.90;;;;;;5052585;28;20100;-68
2021/11/27 02:09:21;;;;;;;28.38;15.18;;;3.30;99.90;;;;;;5052610;28;20082;-68
2021/11/27 02:11:48;;;;;;;25.95;14.88;;;3.40;99.90;;;;;;5052207;28;20041;-68
2021/11/27 02:14:13;;;;;;;25.77;14.75;;;3.40;99.90;;;;;;5052454;28;20111;-68
2021/11/27 02:16:40;;;;;;;26.83;16.30;;;3.40;99.90;;;;;;5052828;28;20098;-68
2021/11/27 02:19:07;;;;;;;29.88;16.42;;;3.40;99.90;;;;;;5052495;28;20071;-68
2021/11/27 02:21:33;;;;;;;29.77;15.93;;;3.40;99.90;;;;;;5053103;28;20116;-68
2021/11/27 02:23:58;;;;;;;36.47;15.75;;;3.40;99.90;;;;;;5054821;28;20116;-68
2021/11/27 02:26:30;;;;;;;30.00;16.80;;;3.40;99.90;;;;;;5056062;28;20094;-68
2021/11/27 02:29:08;;;;;;;28.48;17.38;;;3.40;99.90;;;;;;5056079;28;20021;-68
2021/11/27 02:31:35;;;;;;;31.33;16.95;;;3.40;99.90;;;;;;5055360;28;20025;-68
2021/11/27 02:34:02;;;;;;;31.23;18.77;;;3.40;99.90;;;;;;5055824;28;20033;-68
2021/11/27 02:36:29;;;;;;;32.92;17.40;;;3.40;99.90;;;;;;5055867;28;20104;-68
2021/11/27 02:38:56;;;;;;;35.53;17.83;;;3.40;99.90;;;;;;5055522;28;20488;-68
2021/11/27 02:41:22;;;;;;;29.67;17.75;;;3.40;99.90;;;;;;5055716;28;20464;-68
2021/11/27 02:43:48;;;;;;;28.55;17.00;;;3.40;99.90;;;;;;5055745;28;20029;-68
2021/11/27 02:46:14;;;;;;;40.45;19.38;;;3.40;99.90;;;;;;5055667;28;20025;-68
2021/11/27 02:48:39;;;;;;;29.92;18.00;;;3.40;99.90;;;;;;5055667;28;20068;-68
2021/11/27 02:51:05;;;;;;;31.83;18.67;;;3.40;99.90;;;;;;5054952;28;20029;-68
2021/11/27 02:53:42;;;;;;;30.05;17.77;;;3.40;99.90;;;;;;5055507;28;20104;-68
2021/11/27 02:56:07;;;;;;;28.45;18.05;;;3.40;99.90;;;;;;5055527;28;20025;-68
2021/11/27 02:58:33;;;;;;;30.13;18.38;;;3.40;99.90;;;;;;5055420;28;20087;-68
2021/11/27 03:01:01;;;;;;;33.53;18.80;;;3.40;99.90;;;;;;5054851;28;20021;-68
2021/11/27 03:03:27;;;;;;;33.25;18.98;;;3.40;99.90;;;;;;5055595;28;20063;-68
2021/11/27 03:05:53;;;;;;;28.95;18.33;;;3.40;99.90;;;;;;5055591;28;20048;-68
2021/11/27 03:08:19;;;;;;;33.03;17.65;;;3.40;99.90;;;;;;5055296;28;20024;-68
2021/11/27 03:10:46;;;;;;;33.13;20.20;;;3.40;99.90;;;;;;5054530;28;20025;-68
2021/11/27 03:13:12;;;;;;;33.22;19.02;;;3.40;99.90;;;;;;5055475;28;20108;-68
2021/11/27 03:15:41;;;;;;;33.50;21.10;;;3.30;99.90;;;;;;5055104;28;20025;-68
2021/11/27 03:18:11;;;;;;;31.15;17.88;;;3.30;99.90;;;;;;5055315;28;20013;-68
2021/11/27 03:20:37;;;;;;;38.78;20.33;;;3.30;99.90;;;;;;5055323;28;20103;-68
2021/11/27 03:23:03;;;;;;;34.05;19.88;;;3.30;99.90;;;;;;5055128;28;20052;-68
2021/11/27 03:25:29;;;;;;;35.15;19.55;;;3.30;99.90;;;;;;5054439;28;20036;-68
2021/11/27 03:27:55;;;;;;;37.35;20.95;;;3.30;99.90;;;;;;5055140;28;20025;-68
2021/11/27 03:30:21;;;;;;;35.67;20.90;;;3.30;99.90;;;;;;5054878;28;20111;-68
2021/11/27 03:32:47;;;;;;;41.05;19.92;;;3.30;99.90;;;;;;5054677;28;20108;-68
2021/11/27 03:35:14;;;;;;;38.25;21.17;;;3.30;99.90;;;;;;5054617;28;20033;-68
2021/11/27 03:37:40;;;;;;;41.53;22.02;;;3.20;99.90;;;;;;5054375;28;20046;-68
2021/11/27 03:40:08;;;;;;;37.85;20.55;;;3.30;99.90;;;;;;5054632;28;20032;-68
2021/11/27 03:42:34;;;;;;;39.63;21.02;;;3.30;99.90;;;;;;5054487;28;20056;-68
2021/11/27 03:45:00;;;;;;;37.63;21.95;;;3.20;99.90;;;;;;5054591;28;20029;-68
2021/11/27 03:47:26;;;;;;;37.58;20.83;;;3.30;99.90;;;;;;5054037;28;20029;-67
2021/11/27 03:49:52;;;;;;;37.25;22.35;;;3.20;99.90;;;;;;5054687;28;20112;-68
2021/11/27 03:52:19;;;;;;;42.30;21.48;;;3.20;99.90;;;;;;5054357;28;20032;-68
2021/11/27 03:54:46;;;;;;;43.92;21.10;;;3.20;99.90;;;;;;5054645;28;20040;-68
2021/11/27 03:57:12;;;;;;;38.38;20.42;;;3.20;99.90;;;;;;5053785;28;20107;-68
2021/11/27 03:59:38;;;;;;;43.40;22.85;;;3.20;99.90;;;;;;5054350;28;20179;-68
2021/11/27 04:02:05;;;;;;;44.05;23.35;;;3.20;99.90;;;;;;5054413;28;20610;-68
2021/11/27 04:04:31;;;;;;;47.00;21.30;;;3.20;99.90;;;;;;5053699;28;20052;-68
2021/11/27 04:06:57;;;;;;;40.13;22.30;;;3.10;99.90;;;;;;5054170;28;20117;-68
2021/11/27 04:09:23;;;;;;;47.40;23.25;;;3.20;99.90;;;;;;5054114;28;20480;-68
2021/11/27 04:11:49;;;;;;;43.75;22.63;;;3.10;99.90;;;;;;5053536;28;20037;-67
2021/11/27 04:14:14;;;;;;;42.30;22.55;;;3.10;99.90;;;;;;5053805;28;20101;-68
2021/11/27 04:16:40;;;;;;;44.47;21.73;;;3.10;99.90;;;;;;5053995;28;20025;-68
2021/11/27 04:19:06;;;;;;;38.15;22.77;;;3.10;99.90;;;;;;5054227;28;20044;-68
2021/11/27 04:21:31;;;;;;;48.58;23.77;;;3.10;99.90;;;;;;5053328;28;20028;-67
2021/11/27 04:23:57;;;;;;;47.17;22.83;;;3.10;99.90;;;;;;5053959;28;20051;-68
2021/11/27 04:26:23;;;;;;;45.50;23.38;;;3.10;99.90;;;;;;5054096;28;20032;-68
2021/11/27 04:28:52;;;;;;;44.10;23.67;;;3.10;99.90;;;;;;5053825;28;20029;-68
2021/11/27 04:31:18;;;;;;;43.97;23.95;;;3.10;99.90;;;;;;5052373;28;20025;-67
2021/11/27 04:33:48;;;;;;;45.80;23.48;;;3.10;99.90;;;;;;5053897;28;20491;-68
2021/11/27 04:36:14;;;;;;;52.47;24.40;;;3.10;99.90;;;;;;5053101;28;20057;-68
2021/11/27 04:38:40;;;;;;;47.00;24.75;;;3.20;99.90;;;;;;5053580;28;20032;-68
2021/11/27 04:41:06;;;;;;;43.30;24.15;;;3.20;99.90;;;;;;5053542;28;20536;-68
2021/11/27 04:43:32;;;;;;;49.28;24.42;;;3.10;99.90;;;;;;5053357;28;20403;-68
2021/11/27 04:45:57;;;;;;;46.88;24.65;;;3.20;99.90;;;;;;5053305;28;20029;-68
2021/11/27 04:48:23;;;;;;;47.03;23.90;;;3.20;99.90;;;;;;5052923;28;20032;-68
2021/11/27 04:50:49;;;;;;;47.65;24.63;;;3.20;99.90;;;;;;5053346;28;20423;-68
2021/11/27 04:53:15;;;;;;;51.33;24.92;;;3.20;99.90;;;;;;5053681;28;20026;-68
2021/11/27 04:55:41;;;;;;;49.08;25.10;;;3.10;99.90;;;;;;5053545;28;20021;-68
2021/11/27 04:58:07;;;;;;;48.33;24.30;;;3.10;99.90;;;;;;5052816;28;20032;-68
2021/11/27 05:00:45;;;;;;;50.35;24.20;;;3.10;99.90;;;;;;5053246;28;20052;-68
2021/11/27 05:03:10;;;;;;;44.95;23.08;;;3.10;99.90;;;;;;5053800;28;20029;-68
2021/11/27 05:05:36;;;;;;;45.15;24.73;;;3.10;99.90;;;;;;5053486;28;20031;-68
2021/11/27 05:08:03;;;;;;;53.55;25.10;;;3.10;99.90;;;;;;5053129;28;20029;-68
2021/11/27 05:10:29;;;;;;;52.25;26.98;;;3.10;99.90;;;;;;5052911;28;20038;-68
2021/11/27 05:12:54;;;;;;;50.78;25.15;;;3.10;99.90;;;;;;5122516;22;20498;-72
2021/11/27 05:15:21;;;;;;;45.75;24.30;;;3.10;99.90;;;;;;5073108;28;20437;-73
2021/11/27 05:17:46;;;;;;;46.55;23.98;;;3.10;99.90;;;;;;5073067;28;20025;-73
2021/11/27 05:20:12;;;;;;;49.53;25.08;;;3.10;99.90;;;;;;5073377;28;20023;-73
2021/11/27 05:22:38;;;;;;;45.25;24.85;;;3.10;99.90;;;;;;5072464;28;20024;-73
2021/11/27 05:25:05;;;;;;;52.15;25.20;;;3.10;99.90;;;;;;5073099;28;20518;-73
2021/11/27 05:27:31;;;;;;;49.53;23.30;;;3.10;99.90;;;;;;5072935;28;20115;-72
2021/11/27 05:29:57;;;;;;;42.97;24.23;;;3.10;99.90;;;;;;5073259;28;20143;-72
2021/11/27 05:32:25;;;;;;;49.60;24.15;;;3.10;99.90;;;;;;5072889;28;20433;-72
2021/11/27 05:34:52;;;;;;;44.65;23.20;;;3.10;99.90;;;;;;5072364;28;20027;-72
2021/11/27 05:37:18;;;;;;;54.90;24.98;;;3.10;99.90;;;;;;5072920;28;20097;-72
2021/11/27 05:39:45;;;;;;;48.20;22.83;;;3.10;99.90;;;;;;5071681;28;20079;-72
2021/11/27 05:42:11;;;;;;;36.40;21.35;;;3.10;99.90;;;;;;5072862;28;20391;-73
2021/11/27 05:44:37;;;;;;;46.13;23.70;;;3.10;99.90;;;;;;5071540;28;20032;-72
2021/11/27 05:47:04;;;;;;;45.22;22.58;;;3.10;99.90;;;;;;5072278;28;20032;-72
2021/11/27 05:49:30;;;;;;;49.42;24.13;;;3.10;99.90;;;;;;5071581;28;20031;-73
2021/11/27 05:51:55;;;;;;;49.17;23.98;;;3.10;99.90;;;;;;5071468;28;20406;-72
2021/11/27 05:54:21;;;;;;;47.83;26.13;;;3.10;99.90;;;;;;5072785;28;20036;-72
2021/11/27 05:56:46;;;;;;;46.42;25.00;;;3.10;99.90;;;;;;5074331;28;20027;-72
2021/11/27 05:59:12;;;;;;;50.85;26.50;;;3.10;99.90;;;;;;5076098;28;20021;-72
2021/11/27 06:01:38;;;;;;;53.92;26.25;;;3.10;99.90;;;;;;5076584;28;20099;-72
2021/11/27 06:04:04;;;;;;;49.78;26.67;;;3.20;99.90;;;;;;5076500;28;20037;-73
2021/11/27 06:06:29;;;;;;;48.65;25.80;;;3.20;99.90;;;;;;5076412;28;20082;-72
2021/11/27 06:08:55;;;;;;;57.60;27.60;;;3.20;99.90;;;;;;5075856;28;20033;-72
2021/11/27 06:11:21;;;;;;;51.60;26.10;;;3.20;99.90;;;;;;5076168;28;20020;-72
2021/11/27 06:13:47;;;;;;;55.15;26.88;;;3.20;99.90;;;;;;5076797;28;20440;-72
2021/11/27 06:16:12;;;;;;;62.92;28.65;;;3.20;99.90;;;;;;5076685;28;20017;-72
2021/11/27 06:18:38;;;;;;;52.55;26.15;;;3.20;99.90;;;;;;5075693;28;20017;-72
2021/11/27 06:21:05;;;;;;;48.78;27.25;;;3.20;99.90;;;;;;5076063;28;20036;-72
2021/11/27 06:23:31;;;;;;;49.78;26.85;;;3.20;99.90;;;;;;5076119;28;20023;-72
2021/11/27 06:25:57;;;;;;;52.92;28.35;;;3.20;99.90;;;;;;5076101;28;20017;-72
2021/11/27 06:28:23;;;;;;;51.00;25.33;;;3.20;99.90;;;;;;5076038;28;20031;-72
2021/11/27 06:30:49;;;;;;;63.60;29.25;;;3.20;99.90;;;;;;5076000;28;20028;-73
2021/11/27 06:33:15;;;;;;;54.63;26.33;;;3.20;99.90;;;;;;5075490;28;20027;-72
2021/11/27 06:35:41;;;;;;;50.63;28.58;;;3.20;99.90;;;;;;5074604;28;20025;-72
2021/11/27 06:38:07;;;;;;;48.28;24.70;;;3.20;99.90;;;;;;5075995;28;20099;-72
2021/11/27 06:40:33;;;;;;;53.42;26.55;;;3.20;99.90;;;;;;5075324;28;20092;-72
2021/11/27 06:43:01;;;;;;;63.20;29.63;;;3.20;99.90;;;;;;5075712;28;20023;-72
2021/11/27 06:45:28;;;;;;;50.72;26.60;;;3.20;99.90;;;;;;5074478;28;20029;-72
2021/11/27 06:47:54;;;;;;;64.78;28.38;;;3.20;99.90;;;;;;5075740;28;20480;-72
2021/11/27 06:50:20;;;;;;;61.05;27.95;;;3.20;99.90;;;;;;5075236;28;20040;-72
2021/11/27 06:52:45;;;;;;;63.10;27.38;;;3.20;99.90;;;;;;5075661;28;20024;-72
2021/11/27 06:55:11;;;;;;;58.92;28.02;;;3.20;99.90;;;;;;5075699;28;20047;-72
2021/11/27 06:57:36;;;;;;;55.65;27.00;;;3.20;99.90;;;;;;5075536;28;20071;-72
2021/11/27 07:00:04;;;;;;;54.10;28.55;;;3.20;99.90;;;;;;5075578;28;20027;-72
2021/11/27 07:02:30;;;;;;;50.10;27.42;;;3.10;99.90;;;;;;5074891;28;20067;-71
2021/11/27 07:04:56;;;;;;;51.38;25.70;;;3.10;99.90;;;;;;5075682;28;20052;-72
2021/11/27 07:07:21;;;;;;;44.22;26.08;;;3.10;99.90;;;;;;5075002;28;20021;-72
2021/11/27 07:09:47;;;;;;;52.13;26.58;;;3.20;99.90;;;;;;5075302;28;20107;-72
2021/11/27 07:12:12;;;;;;;49.15;27.13;;;3.20;99.90;;;;;;5075082;28;20546;-72
2021/11/27 07:14:38;;;;;;;53.03;26.65;;;3.20;99.90;;;;;;5075095;28;20025;-72
2021/11/27 07:17:04;;;;;;;43.78;23.77;;;3.20;99.90;;;;;;5074612;28;20017;-72
2021/11/27 07:19:32;;;;;;;41.70;23.08;;;3.20;99.90;;;;;;5073931;28;20112;-72
2021/11/27 07:21:59;;;;;;;47.35;26.40;;;3.20;99.90;;;;;;5075005;28;20023;-72
2021/11/27 07:24:24;;;;;;;42.20;22.70;;;3.20;99.90;;;;;;5074479;28;20100;-72
2021/11/27 07:26:50;;;;;;;43.17;23.45;;;3.20;99.90;;;;;;5074972;28;20508;-72
2021/11/27 07:29:15;;;;;;;46.28;24.98;;;3.20;99.90;;;;;;5074914;28;20063;-72
2021/11/27 07:31:41;;;;;;;50.13;23.48;;;3.20;99.90;;;;;;5074232;28;20031;-72
2021/11/27 07:34:06;;;;;;;44.75;22.60;;;3.20;99.90;;;;;;5074734;28;20476;-72
2021/11/27 07:36:32;;;;;;;45.47;22.42;;;3.20;99.90;;;;;;5074823;28;20426;-72
2021/11/27 07:38:58;;;;;;;48.63;24.02;;;3.20;99.90;;;;;;5074158;28;20444;-72
2021/11/27 07:41:23;;;;;;;42.08;21.98;;;3.20;99.90;;;;;;5073375;28;20077;-72
2021/11/27 07:43:49;;;;;;;41.50;22.25;;;3.30;99.90;;;;;;5074653;28;20396;-72
2021/11/27 07:46:16;;;;;;;45.25;24.63;;;3.20;99.90;;;;;;5074591;28;20029;-72
2021/11/27 07:48:42;;;;;;;47.75;23.23;;;3.30;99.90;;;;;;5074132;28;20150;-72
2021/11/27 07:51:07;;;;;;;41.85;24.63;;;3.20;99.90;;;;;;5074407;28;20060;-72
2021/11/27 07:53:33;;;;;;;40.40;22.35;;;3.30;99.90;;;;;;5074304;28;20472;-72
2021/11/27 07:55:59;;;;;;;44.75;24.50;;;3.30;99.90;;;;;;5074666;28;20070;-72
2021/11/27 07:58:24;;;;;;;42.38;23.60;;;3.30;99.90;;;;;;5074342;28;20020;-72
2021/11/27 08:00:50;;;;;;;53.70;24.33;;;3.30;99.90;;;;;;5073704;28;20021;-72
2021/11/27 08:03:15;;;;;;;50.67;25.75;;;3.30;99.90;;;;;;5074183;28;20024;-72
2021/11/27 08:05:41;;;;;;;50.55;26.60;;;3.40;99.90;;;;;;5074145;28;20518;-72
2021/11/27 08:08:07;;;;;;;51.55;25.75;;;3.40;99.90;;;;;;5074720;28;20025;-73
2021/11/27 08:10:32;;;;;;;54.53;25.20;;;3.40;99.90;;;;;;5073639;28;20029;-72
2021/11/27 08:12:58;;;;;;;49.08;25.92;;;3.40;99.90;;;;;;5073799;28;20033;-72
2021/11/27 08:15:23;;;;;;;40.85;22.05;;;3.40;99.90;;;;;;5073912;28;20395;-72
2021/11/27 08:17:49;;;;;;;50.88;23.50;;;3.40;99.90;;;;;;5073760;28;20086;-72
2021/11/27 08:20:15;;;;;;;46.60;24.85;;;3.40;99.90;;;;;;5073334;28;20438;-72
2021/11/27 08:22:41;;;;;;;46.13;24.35;;;3.40;99.90;;;;;;5072521;28;20074;-72
2021/11/27 08:25:08;;;;;;;46.78;24.38;;;3.40;99.90;;;;;;5073873;28;20024;-72
2021/11/27 08:27:34;;;;;;;46.92;24.00;;;3.40;99.90;;;;;;5073771;28;20063;-72
2021/11/27 08:30:04;;;;;;;43.95;23.42;;;3.40;99.90;;;;;;5073720;28;20029;-71
2021/11/27 08:32:30;;;;;;;53.47;25.85;;;3.40;99.90;;;;;;5071841;28;20032;-72
2021/11/27 08:34:57;;;;;;;38.78;22.90;;;3.40;99.90;;;;;;5073626;28;20395;-72
2021/11/27 08:37:23;;;;;;;44.83;24.10;;;3.50;99.90;;;;;;5073617;28;20089;-72
2021/11/27 08:39:48;;;;;;;46.30;24.77;;;3.50;99.90;;;;;;5073842;28;20032;-72
2021/11/27 08:42:16;;;;;;;44.08;25.67;;;3.50;99.90;;;;;;5072993;28;20020;-72
2021/11/27 08:44:41;;;;;;;49.97;25.50;;;3.50;99.90;;;;;;5073518;28;20025;-72
2021/11/27 08:47:07;;;;;;;45.60;25.77;;;3.50;99.90;;;;;;5073258;28;20035;-72
2021/11/27 08:49:32;;;;;;;45.92;25.20;;;3.60;99.90;;;;;;5071771;28;20024;-72
2021/11/27 08:51:58;;;;;;;48.00;25.30;;;3.50;99.90;;;;;;5073643;28;20046;-72
2021/11/27 08:54:23;;;;;;;48.38;25.48;;;3.50;99.90;;;;;;5073050;28;20020;-72
2021/11/27 08:56:49;;;;;;;47.05;25.52;;;3.60;99.90;;;;;;5073833;28;20024;-72
2021/11/27 08:59:15;;;;;;;49.22;25.85;;;3.60;99.90;;;;;;5073340;28;20020;-72
2021/11/27 09:01:41;;;;;;;44.92;25.20;;;3.60;99.90;;;;;;5073192;28;20025;-72
2021/11/27 09:04:07;;;;;;;39.47;23.58;;;3.60;99.90;;;;;;5073821;28;20048;-72
2021/11/27 09:06:32;;;;;;;50.38;25.77;;;3.70;99.90;;;;;;5072994;28;20468;-72
2021/11/27 09:08:58;;;;;;;44.83;26.55;;;3.70;99.90;;;;;;5073448;28;20051;-72
2021/11/27 09:11:28;;;;;;;44.38;24.35;;;3.70;99.90;;;;;;5073270;28;20118;-72
2021/11/27 09:13:54;;;;;;;40.53;23.85;;;3.70;99.90;;;;;;5073026;28;20020;-72
2021/11/27 09:16:20;;;;;;;43.80;24.05;;;3.70;99.90;;;;;;5072716;28;20028;-72
2021/11/27 09:18:45;;;;;;;44.35;24.88;;;3.80;99.90;;;;;;5073143;28;20033;-72
2021/11/27 09:21:11;;;;;;;51.15;26.00;;;3.80;99.90;;;;;;5073056;28;20027;-72
2021/11/27 09:23:37;;;;;;;45.30;25.33;;;3.80;99.90;;;;;;5073148;28;20037;-72
2021/11/27 09:26:02;;;;;;;44.33;25.98;;;3.90;99.90;;;;;;5072522;28;20043;-72
2021/11/27 09:28:28;;;;;;;40.03;25.25;;;3.80;99.90;;;;;;5073032;28;20027;-72
2021/11/27 09:30:54;;;;;;;43.30;24.98;;;3.90;99.90;;;;;;5075225;28;20094;-72
2021/11/27 09:33:19;;;;;;;50.50;26.02;;;3.90;99.90;;;;;;5077095;28;20031;-72
2021/11/27 09:35:57;;;;;;;52.65;28.00;;;4.00;99.90;;;;;;5077313;28;20051;-72
2021/11/27 09:38:22;;;;;;;45.83;24.98;;;3.90;99.90;;;;;;5076577;28;20024;-72
2021/11/27 09:40:52;;;;;;;42.25;25.17;;;3.90;99.90;;;;;;5077244;28;20115;-72
2021/11/27 09:43:19;;;;;;;42.78;23.73;;;4.00;99.90;;;;;;5076994;28;20025;-72
2021/11/27 09:45:47;;;;;;;44.33;25.83;;;4.00;99.90;;;;;;5076898;28;20399;-72
2021/11/27 09:48:13;;;;;;;45.13;26.23;;;4.00;99.90;;;;;;5076712;28;20025;-72
2021/11/27 09:50:40;;;;;;;36.75;22.65;;;4.10;99.90;;;;;;5076792;28;20142;-72
2021/11/27 09:53:06;;;;;;;43.38;25.55;;;4.10;99.90;;;;;;5076684;28;20510;-72
2021/11/27 09:55:32;;;;;;;41.17;26.45;;;4.20;99.90;;;;;;5076878;28;20033;-72
2021/11/27 09:57:57;;;;;;;41.22;25.60;;;4.30;99.90;;;;;;5076918;28;20102;-72
2021/11/27 10:00:23;;;;;;;45.30;24.40;;;4.20;99.90;;;;;;5076064;28;20025;-72
2021/11/27 10:02:55;;;;;;;45.58;26.15;;;4.30;99.90;;;;;;5076463;28;20035;-72
2021/11/27 10:05:22;;;;;;;43.88;23.02;;;4.20;99.90;;;;;;5076598;28;20024;-72
2021/11/27 10:07:48;;;;;;;42.60;23.67;;;4.30;99.90;;;;;;5076680;28;20031;-76
2021/11/27 10:10:15;;;;;;;41.78;23.60;;;4.30;99.90;;;;;;5076690;28;20035;-73
2021/11/27 10:12:42;;;;;;;34.75;21.52;;;4.30;99.90;;;;;;5076216;28;20028;-72
2021/11/27 10:15:09;;;;;;;38.35;21.27;;;4.40;99.90;;;;;;5075576;28;20032;-72
2021/11/27 10:17:35;;;;;;;40.97;22.60;;;4.40;99.90;;;;;;5076526;28;20074;-72
2021/11/27 10:20:05;;;;;;;35.28;21.63;;;4.40;99.90;;;;;;5076242;28;20028;-72
2021/11/27 10:22:49;;;;;;;30.67;19.65;;;4.50;99.90;;;;;;5076354;28;20017;-72
2021/11/27 10:25:54;;;;;;;32.33;19.83;;;4.50;99.90;;;;;;5075982;28;20020;-72
2021/11/27 10:28:20;;;;;;;37.30;19.50;;;4.50;99.90;;;;;;5054274;28;20115;-72
2021/11/27 10:30:48;;;;;;;32.13;19.10;;;4.50;99.90;;;;;;5054603;28;20033;-72
2021/11/27 10:33:14;;;;;;;34.80;20.77;;;4.50;99.90;;;;;;5064747;28;20036;-72
2021/11/27 10:36:04;;;;;;;37.83;21.00;;;4.60;99.90;;;;;;5075869;28;20043;-72
2021/11/27 10:38:44;;;;;;;37.42;20.98;;;4.60;99.90;;;;;;5075455;28;20028;-72
2021/11/27 10:41:13;;;;;;;30.52;19.00;;;4.60;99.90;;;;;;5074554;28;20043;-72
2021/11/27 10:43:56;;;;;;;32.38;19.00;;;4.60;99.90;;;;;;5075092;28;20059;-72
2021/11/27 10:46:30;;;;;;;28.10;18.35;;;4.60;99.90;;;;;;5075562;28;20048;-71
2021/11/27 10:48:56;;;;;;;32.45;17.75;;;4.60;99.90;;;;;;5076284;28;20021;-72
2021/11/27 10:51:23;;;;;;;28.13;18.15;;;4.60;99.90;;;;;;5075587;28;20498;-72
2021/11/27 10:53:58;;;;;;;38.55;19.00;;;4.60;99.90;;;;;;5075623;28;20100;-72
2021/11/27 10:56:41;;;;;;;29.35;17.92;;;4.70;99.90;;;;;;5075865;28;20039;-72
2021/11/27 10:59:07;;;;;;;31.48;18.23;;;4.60;99.90;;;;;;5074387;28;20051;-73
2021/11/27 11:02:02;;;;;;;30.15;16.95;;;4.60;99.90;;;;;;5075336;28;20535;-72
2021/11/27 11:04:29;;;;;;;27.23;15.35;;;4.60;99.90;;;;;;5076063;28;20021;-73
2021/11/27 11:07:20;;;;;;;30.15;16.38;;;4.60;99.90;;;;;;5075372;28;20041;-72
2021/11/27 11:10:07;;;;;;;29.27;15.63;;;4.70;99.90;;;;;;5075405;28;20518;-72
2021/11/27 11:12:41;;;;;;;29.45;15.27;;;4.70;99.90;;;;;;5073363;28;20515;-72
2021/11/27 11:15:17;;;;;;;25.35;14.80;;;4.80;99.90;;;;;;5075187;28;20032;-73
2021/11/27 11:17:45;;;;;;;24.10;14.32;;;4.80;99.90;;;;;;5075251;28;20016;-72
2021/11/27 11:20:16;;;;;;;27.52;14.45;;;4.90;99.90;;;;;;5074911;28;20024;-72
2021/11/27 11:23:05;;;;;;;25.75;14.25;;;4.90;99.90;;;;;;5074992;28;20023;-73
2021/11/27 11:25:33;;;;;;;23.73;14.32;;;5.00;99.90;;;;;;5075336;28;20487;-73
2021/11/27 11:28:10;;;;;;;24.20;14.38;;;5.00;99.90;;;;;;5074960;28;20503;-74
2021/11/27 11:30:38;;;;;;;24.92;13.95;;;5.10;99.90;;;;;;5075191;28;20021;-77
2021/11/27 11:33:05;;;;;;;23.75;14.52;;;5.10;99.90;;;;;;5073638;28;20032;-74
2021/11/27 11:35:32;;;;;;;28.02;15.10;;;5.20;99.90;;;;;;5073501;28;20158;-74
2021/11/27 11:37:57;;;;;;;23.15;14.00;;;5.30;99.90;;;;;;5074245;28;20019;-75
2021/11/27 11:40:23;;;;;;;25.42;14.52;;;5.40;99.90;;;;;;5075673;28;20020;-74
2021/11/27 11:42:49;;;;;;;22.02;13.73;;;5.40;99.90;;;;;;5074609;28;20074;-74
2021/11/27 11:45:15;;;;;;;31.27;15.48;;;5.40;99.90;;;;;;5074129;28;20099;-74
2021/11/27 11:47:40;;;;;;;27.45;14.52;;;5.30;99.90;;;;;;5073349;28;20035;-74
2021/11/27 11:50:11;;;;;;;22.83;13.45;;;5.20;99.90;;;;;;5074521;28;20391;-74
2021/11/27 11:52:48;;;;;;;23.15;13.55;;;5.20;99.90;;;;;;5074635;28;20071;-74
2021/11/27 11:55:17;;;;;;;21.65;13.38;;;5.30;99.90;;;;;;5073703;28;20039;-74
2021/11/27 11:57:45;;;;;;;20.95;13.80;;;5.30;99.90;;;;;;5073797;28;20434;-74
2021/11/27 12:00:26;;;;;;;22.75;13.57;;;5.20;99.90;;;;;;5074610;28;20444;-74
2021/11/27 12:02:52;;;;;;;20.40;13.77;;;5.20;99.90;;;;;;5074142;28;20013;-74
2021/11/27 12:05:22;;;;;;;21.25;13.93;;;5.20;99.90;;;;;;5073724;28;20071;-74
2021/11/27 12:07:54;;;;;;;26.60;14.82;;;5.20;99.90;;;;;;5074146;28;20082;-76
2021/11/27 12:10:21;;;;;;;22.10;13.10;;;5.10;99.90;;;;;;5074412;28;20016;-74
2021/11/27 12:13:05;;;;;;;25.80;15.20;;;5.00;99.90;;;;;;5073910;28;20039;-74
2021/11/27 12:15:32;;;;;;;;;;;5.00;99.90;;;;;;5074370;28;20483;-73
2021/11/27 12:18:18;;;;;;;23.60;13.80;;;5.10;99.90;;;;;;5074312;28;19911;-72
2021/11/27 12:20:46;;;;;;;21.85;14.48;;;5.20;99.90;;;;;;5072700;28;20041;-72
2021/11/27 12:23:27;;;;;;;24.50;14.50;;;5.10;99.90;;;;;;5074423;28;20052;-73
2021/11/27 12:29:03;;;;;;;21.40;14.07;;;5.30;99.90;;;;;;5074323;28;20559;-73
2021/11/27 12:31:46;;;;;;;21.65;12.88;;;5.30;99.90;;;;;;5073549;28;20025;-74
2021/11/27 12:34:32;;;;;;;20.30;12.88;;;5.20;99.90;;;;;;5073297;28;20028;-74
2021/11/27 12:36:57;;;;;;;20.52;13.07;;;5.20;99.90;;;;;;5073685;28;20487;-73
2021/11/27 12:39:23;;;;;;;20.42;12.07;;;5.20;99.90;;;;;;5072421;28;20107;-73
2021/11/27 12:41:51;;;;;;;24.48;14.85;;;5.10;99.90;;;;;;5073520;28;20497;-74
2021/11/27 12:44:49;;;;;;;20.33;13.88;;;5.00;99.90;;;;;;5073767;28;20029;-74